Pagrindinis puslapis
METAR-TAF:

METAR-TAF

Oro uostai :

Aigen im Ennstal, Austrija

platuma: 47-32N, ilguma: 014-08E, Aukštis: 638 m

METAR: trūkstamas

Laikas: 21:22 (19:22 UTC)

Prognozė

Ataskaita buvo paskelbta 8 valandos ir 7 minutes, ne 11:15 UTC
Prognozė galioja nuo 19 metu 12 UTC su 19 metu 21 UTC
Vėjas 3 kt nuo kintamojo kryptimis
Matomumas 10 km arba daugiau
Mažai debesys ne aukštis 5000 ft
Laikinai
nuo 19 metu 12 UTC su 19 metu 17 UTC
Vėjas 7 kt iš Rytų/Šiaurės Rytų
Su prošvaistėmis ne aukštis 5000 ft

TAF: LOXA 191115Z 1912/1921 VRB03KT 9999 FEW050 TEMPO 1912/1917 06007KT BKN050

Orai ataskaitas ir orų prognozės (METAR, TAF).

turimą stotys yra geltonos ir raudonos taškus žemėlapyje.

Perkelti pele per norėdami pamatyti stoties vardą.

Tada spustelėkite, norėdami matyti oro stebėjimo ir prognozės.

Norėdami pakeisti žemėlapį: spustelėkite ant žalios mygtukų su juodo kryžiaus žemyn,; žalią mygtuką su brūkšneliu, jei norite nutolinti; arba žalių rodyklių gretimoms žemėlapius.


METAR-TAF: